sensor_id;sensor_type;location;lat;lon;timestamp;temperature;humidity
14415;DHT22;7307;50.852;4.314;2022-08-01T00:01:49;26.10;58.20
14415;DHT22;7307;50.852;4.314;2022-08-01T00:04:15;26.10;58.20
14415;DHT22;7307;50.852;4.314;2022-08-01T00:06:40;26.10;58.40
14415;DHT22;7307;50.852;4.314;2022-08-01T00:09:06;26.10;58.40
14415;DHT22;7307;50.852;4.314;2022-08-01T00:11:32;26.10;58.40
14415;DHT22;7307;50.852;4.314;2022-08-01T00:13:57;26.10;58.40
14415;DHT22;7307;50.852;4.314;2022-08-01T00:16:23;26.00;58.40
14415;DHT22;7307;50.852;4.314;2022-08-01T00:18:50;26.10;58.40
14415;DHT22;7307;50.852;4.314;2022-08-01T00:21:16;26.00;58.40
14415;DHT22;7307;50.852;4.314;2022-08-01T00:23:42;26.00;58.40
14415;DHT22;7307;50.852;4.314;2022-08-01T00:26:08;26.00;58.40
14415;DHT22;7307;50.852;4.314;2022-08-01T00:28:35;26.00;58.50
14415;DHT22;7307;50.852;4.314;2022-08-01T00:31:00;26.00;59.00
14415;DHT22;7307;50.852;4.314;2022-08-01T00:33:26;26.00;58.60
14415;DHT22;7307;50.852;4.314;2022-08-01T00:35:51;26.00;58.50
14415;DHT22;7307;50.852;4.314;2022-08-01T00:38:17;26.00;58.60
14415;DHT22;7307;50.852;4.314;2022-08-01T00:40:42;26.00;58.50
14415;DHT22;7307;50.852;4.314;2022-08-01T00:43:09;26.00;58.60
14415;DHT22;7307;50.852;4.314;2022-08-01T00:45:34;26.00;58.60
14415;DHT22;7307;50.852;4.314;2022-08-01T00:48:00;26.00;58.60
14415;DHT22;7307;50.852;4.314;2022-08-01T00:50:26;26.00;58.70
14415;DHT22;7307;50.852;4.314;2022-08-01T00:52:52;26.00;58.70
14415;DHT22;7307;50.852;4.314;2022-08-01T00:55:19;26.00;58.60
14415;DHT22;7307;50.852;4.314;2022-08-01T00:57:46;26.00;58.60
14415;DHT22;7307;50.852;4.314;2022-08-01T01:00:12;26.00;58.60
14415;DHT22;7307;50.852;4.314;2022-08-01T01:02:38;26.00;58.60
14415;DHT22;7307;50.852;4.314;2022-08-01T01:05:04;26.00;58.60
14415;DHT22;7307;50.852;4.314;2022-08-01T01:07:50;26.00;58.60
14415;DHT22;7307;50.852;4.314;2022-08-01T01:10:58;26.00;58.70
14415;DHT22;7307;50.852;4.314;2022-08-01T01:13:39;25.90;58.70
14415;DHT22;7307;50.852;4.314;2022-08-01T01:16:15;26.00;58.70
14415;DHT22;7307;50.852;4.314;2022-08-01T01:18:54;26.00;58.80
14415;DHT22;7307;50.852;4.314;2022-08-01T01:31:49;25.90;59.00
14415;DHT22;7307;50.852;4.314;2022-08-01T01:34:18;25.90;59.00
14415;DHT22;7307;50.852;4.314;2022-08-01T01:36:47;25.90;59.00
14415;DHT22;7307;50.852;4.314;2022-08-01T01:39:14;25.90;59.20
14415;DHT22;7307;50.852;4.314;2022-08-01T01:41:41;25.90;59.20
14415;DHT22;7307;50.852;4.314;2022-08-01T01:44:09;25.90;59.20
14415;DHT22;7307;50.852;4.314;2022-08-01T01:46:36;25.90;59.30
14415;DHT22;7307;50.852;4.314;2022-08-01T01:49:02;25.90;59.30
14415;DHT22;7307;50.852;4.314;2022-08-01T01:51:29;25.90;59.30
14415;DHT22;7307;50.852;4.314;2022-08-01T01:53:55;25.90;59.30
14415;DHT22;7307;50.852;4.314;2022-08-01T01:56:22;25.90;59.40
14415;DHT22;7307;50.852;4.314;2022-08-01T01:58:52;25.90;59.50
14415;DHT22;7307;50.852;4.314;2022-08-01T02:01:20;25.90;59.50
14415;DHT22;7307;50.852;4.314;2022-08-01T02:03:48;25.80;59.50
14415;DHT22;7307;50.852;4.314;2022-08-01T02:06:15;25.90;59.60
14415;DHT22;7307;50.852;4.314;2022-08-01T02:08:42;25.90;59.60
14415;DHT22;7307;50.852;4.314;2022-08-01T02:11:09;25.80;59.60
14415;DHT22;7307;50.852;4.314;2022-08-01T02:13:52;25.80;59.60
14415;DHT22;7307;50.852;4.314;2022-08-01T02:16:18;25.80;59.60
14415;DHT22;7307;50.852;4.314;2022-08-01T02:18:44;25.80;59.80
14415;DHT22;7307;50.852;4.314;2022-08-01T02:21:13;25.80;59.80
14415;DHT22;7307;50.852;4.314;2022-08-01T02:23:40;25.80;59.80
14415;DHT22;7307;50.852;4.314;2022-08-01T02:26:10;25.80;59.80
14415;DHT22;7307;50.852;4.314;2022-08-01T02:29:07;25.80;59.90
14415;DHT22;7307;50.852;4.314;2022-08-01T02:31:32;25.80;59.80
14415;DHT22;7307;50.852;4.314;2022-08-01T02:34:04;25.80;59.90
14415;DHT22;7307;50.852;4.314;2022-08-01T02:36:33;25.80;60.00
14415;DHT22;7307;50.852;4.314;2022-08-01T02:39:03;25.80;60.00
14415;DHT22;7307;50.852;4.314;2022-08-01T02:41:30;25.80;60.00
14415;DHT22;7307;50.852;4.314;2022-08-01T02:44:01;25.80;60.10
14415;DHT22;7307;50.852;4.314;2022-08-01T02:46:37;25.80;60.10
14415;DHT22;7307;50.852;4.314;2022-08-01T02:49:07;25.80;60.10
14415;DHT22;7307;50.852;4.314;2022-08-01T02:51:35;25.80;60.10
14415;DHT22;7307;50.852;4.314;2022-08-01T02:54:07;25.70;60.00
14415;DHT22;7307;50.852;4.314;2022-08-01T02:56:34;25.80;60.10
14415;DHT22;7307;50.852;4.314;2022-08-01T02:59:06;25.70;60.00
14415;DHT22;7307;50.852;4.314;2022-08-01T03:01:34;25.70;60.10
14415;DHT22;7307;50.852;4.314;2022-08-01T03:04:01;25.70;60.10
14415;DHT22;7307;50.852;4.314;2022-08-01T03:06:28;25.70;60.10
14415;DHT22;7307;50.852;4.314;2022-08-01T03:08:55;25.70;60.10
14415;DHT22;7307;50.852;4.314;2022-08-01T03:11:22;25.70;60.10
14415;DHT22;7307;50.852;4.314;2022-08-01T03:13:50;25.70;60.10
14415;DHT22;7307;50.852;4.314;2022-08-01T03:16:18;25.70;60.10
14415;DHT22;7307;50.852;4.314;2022-08-01T03:18:45;25.60;60.00
14415;DHT22;7307;50.852;4.314;2022-08-01T03:21:12;25.70;60.30
14415;DHT22;7307;50.852;4.314;2022-08-01T03:23:40;25.70;60.30
14415;DHT22;7307;50.852;4.314;2022-08-01T03:26:06;25.70;60.30
14415;DHT22;7307;50.852;4.314;2022-08-01T03:28:32;25.70;60.30
14415;DHT22;7307;50.852;4.314;2022-08-01T03:30:58;25.70;60.40
14415;DHT22;7307;50.852;4.314;2022-08-01T03:33:25;25.60;60.40
14415;DHT22;7307;50.852;4.314;2022-08-01T03:35:53;25.70;60.70
14415;DHT22;7307;50.852;4.314;2022-08-01T03:38:23;25.70;60.90
14415;DHT22;7307;50.852;4.314;2022-08-01T03:41:04;25.60;61.10
14415;DHT22;7307;50.852;4.314;2022-08-01T03:43:37;25.70;61.40
14415;DHT22;7307;50.852;4.314;2022-08-01T03:46:06;25.60;61.50
14415;DHT22;7307;50.852;4.314;2022-08-01T03:48:36;25.60;61.70
14415;DHT22;7307;50.852;4.314;2022-08-01T03:51:05;25.60;61.80
14415;DHT22;7307;50.852;4.314;2022-08-01T03:53:33;25.60;62.00
14415;DHT22;7307;50.852;4.314;2022-08-01T03:56:00;25.60;62.20
14415;DHT22;7307;50.852;4.314;2022-08-01T03:58:28;25.60;62.40
14415;DHT22;7307;50.852;4.314;2022-08-01T04:00:55;25.60;62.70
14415;DHT22;7307;50.852;4.314;2022-08-01T04:03:20;25.60;62.90
14415;DHT22;7307;50.852;4.314;2022-08-01T04:05:46;25.60;63.20
14415;DHT22;7307;50.852;4.314;2022-08-01T04:08:12;25.60;63.40
14415;DHT22;7307;50.852;4.314;2022-08-01T04:10:38;25.60;63.50
14415;DHT22;7307;50.852;4.314;2022-08-01T04:13:03;25.50;63.60
14415;DHT22;7307;50.852;4.314;2022-08-01T04:15:29;25.50;63.70
14415;DHT22;7307;50.852;4.314;2022-08-01T04:17:54;25.50;63.70
14415;DHT22;7307;50.852;4.314;2022-08-01T04:20:20;25.50;63.90
14415;DHT22;7307;50.852;4.314;2022-08-01T04:22:47;25.50;64.00
14415;DHT22;7307;50.852;4.314;2022-08-01T04:25:17;25.50;64.10
14415;DHT22;7307;50.852;4.314;2022-08-01T04:27:50;25.50;64.20
14415;DHT22;7307;50.852;4.314;2022-08-01T04:30:22;25.50;64.30
14415;DHT22;7307;50.852;4.314;2022-08-01T04:32:50;25.50;64.20
14415;DHT22;7307;50.852;4.314;2022-08-01T04:35:19;25.50;64.30
14415;DHT22;7307;50.852;4.314;2022-08-01T04:37:46;25.50;64.30
14415;DHT22;7307;50.852;4.314;2022-08-01T04:40:14;25.50;64.30
14415;DHT22;7307;50.852;4.314;2022-08-01T04:42:40;25.50;64.30
14415;DHT22;7307;50.852;4.314;2022-08-01T04:45:07;25.50;64.30
14415;DHT22;7307;50.852;4.314;2022-08-01T04:47:35;25.50;64.30
14415;DHT22;7307;50.852;4.314;2022-08-01T04:50:04;25.40;64.20
14415;DHT22;7307;50.852;4.314;2022-08-01T04:52:33;25.40;64.20
14415;DHT22;7307;50.852;4.314;2022-08-01T04:55:00;25.40;64.30
14415;DHT22;7307;50.852;4.314;2022-08-01T04:57:25;25.40;64.20
14415;DHT22;7307;50.852;4.314;2022-08-01T04:59:51;25.40;64.20
14415;DHT22;7307;50.852;4.314;2022-08-01T05:02:22;25.40;64.20
14415;DHT22;7307;50.852;4.314;2022-08-01T05:04:49;25.40;64.10
14415;DHT22;7307;50.852;4.314;2022-08-01T05:07:15;25.40;64.00
14415;DHT22;7307;50.852;4.314;2022-08-01T05:09:41;25.40;64.00
14415;DHT22;7307;50.852;4.314;2022-08-01T05:12:08;25.40;63.90
14415;DHT22;7307;50.852;4.314;2022-08-01T05:14:35;25.40;63.70
14415;DHT22;7307;50.852;4.314;2022-08-01T05:17:02;25.40;63.60
14415;DHT22;7307;50.852;4.314;2022-08-01T05:19:33;25.40;63.60
14415;DHT22;7307;50.852;4.314;2022-08-01T05:21:59;25.40;63.50
14415;DHT22;7307;50.852;4.314;2022-08-01T05:24:27;25.40;63.50
14415;DHT22;7307;50.852;4.314;2022-08-01T05:26:54;25.40;63.50
14415;DHT22;7307;50.852;4.314;2022-08-01T05:29:19;25.30;63.40
14415;DHT22;7307;50.852;4.314;2022-08-01T05:31:45;25.30;63.60
14415;DHT22;7307;50.852;4.314;2022-08-01T05:34:11;25.30;63.60
14415;DHT22;7307;50.852;4.314;2022-08-01T05:36:36;25.40;63.70
14415;DHT22;7307;50.852;4.314;2022-08-01T05:39:03;25.30;63.60
14415;DHT22;7307;50.852;4.314;2022-08-01T05:41:29;25.30;63.40
14415;DHT22;7307;50.852;4.314;2022-08-01T05:43:55;25.30;63.40
14415;DHT22;7307;50.852;4.314;2022-08-01T05:46:21;25.30;63.40
14415;DHT22;7307;50.852;4.314;2022-08-01T05:48:46;25.30;63.40
14415;DHT22;7307;50.852;4.314;2022-08-01T05:51:12;25.30;63.40
14415;DHT22;7307;50.852;4.314;2022-08-01T05:53:38;25.30;63.30
14415;DHT22;7307;50.852;4.314;2022-08-01T05:56:04;25.30;63.60
14415;DHT22;7307;50.852;4.314;2022-08-01T05:58:30;25.30;63.60
14415;DHT22;7307;50.852;4.314;2022-08-01T06:00:55;25.30;63.40
14415;DHT22;7307;50.852;4.314;2022-08-01T06:03:21;25.30;63.10
14415;DHT22;7307;50.852;4.314;2022-08-01T06:05:47;25.40;63.10
14415;DHT22;7307;50.852;4.314;2022-08-01T06:08:13;25.40;63.00
14415;DHT22;7307;50.852;4.314;2022-08-01T06:10:38;25.30;62.90
14415;DHT22;7307;50.852;4.314;2022-08-01T06:13:04;25.40;62.90
14415;DHT22;7307;50.852;4.314;2022-08-01T06:15:31;25.30;62.70
14415;DHT22;7307;50.852;4.314;2022-08-01T06:17:57;25.30;62.90
14415;DHT22;7307;50.852;4.314;2022-08-01T06:20:22;25.40;63.00
14415;DHT22;7307;50.852;4.314;2022-08-01T06:22:48;25.40;63.00
14415;DHT22;7307;50.852;4.314;2022-08-01T06:25:13;25.30;63.00
14415;DHT22;7307;50.852;4.314;2022-08-01T06:27:39;25.30;62.90
14415;DHT22;7307;50.852;4.314;2022-08-01T06:30:05;25.30;62.90
14415;DHT22;7307;50.852;4.314;2022-08-01T06:32:33;25.30;62.90
14415;DHT22;7307;50.852;4.314;2022-08-01T06:34:59;25.30;63.10
14415;DHT22;7307;50.852;4.314;2022-08-01T06:37:31;25.30;63.20
14415;DHT22;7307;50.852;4.314;2022-08-01T06:40:02;25.30;63.00
14415;DHT22;7307;50.852;4.314;2022-08-01T06:42:28;25.40;63.10
14415;DHT22;7307;50.852;4.314;2022-08-01T06:44:54;25.40;63.00
14415;DHT22;7307;50.852;4.314;2022-08-01T06:47:20;25.40;62.80
14415;DHT22;7307;50.852;4.314;2022-08-01T06:50:07;25.40;62.50
14415;DHT22;7307;50.852;4.314;2022-08-01T06:52:34;25.40;62.40
14415;DHT22;7307;50.852;4.314;2022-08-01T06:54:59;25.40;62.20
14415;DHT22;7307;50.852;4.314;2022-08-01T06:57:25;25.40;62.00
14415;DHT22;7307;50.852;4.314;2022-08-01T06:59:51;25.50;62.00
14415;DHT22;7307;50.852;4.314;2022-08-01T07:02:17;25.50;61.80
14415;DHT22;7307;50.852;4.314;2022-08-01T07:04:43;25.50;61.60
14415;DHT22;7307;50.852;4.314;2022-08-01T07:07:08;25.50;61.50
14415;DHT22;7307;50.852;4.314;2022-08-01T07:09:34;25.50;61.40
14415;DHT22;7307;50.852;4.314;2022-08-01T07:11:59;25.50;61.40
14415;DHT22;7307;50.852;4.314;2022-08-01T07:14:25;25.50;61.30
14415;DHT22;7307;50.852;4.314;2022-08-01T07:16:51;25.50;61.20
14415;DHT22;7307;50.852;4.314;2022-08-01T07:19:17;25.60;61.00
14415;DHT22;7307;50.852;4.314;2022-08-01T07:21:43;25.60;60.90
14415;DHT22;7307;50.852;4.314;2022-08-01T07:24:10;25.60;60.80
14415;DHT22;7307;50.852;4.314;2022-08-01T07:26:36;25.60;60.60
14415;DHT22;7307;50.852;4.314;2022-08-01T07:29:02;25.60;61.20
14415;DHT22;7307;50.852;4.314;2022-08-01T07:31:28;25.60;60.40
14415;DHT22;7307;50.852;4.314;2022-08-01T07:33:54;25.60;60.40
14415;DHT22;7307;50.852;4.314;2022-08-01T07:36:23;25.60;60.10
14415;DHT22;7307;50.852;4.314;2022-08-01T07:38:48;25.60;60.00
14415;DHT22;7307;50.852;4.314;2022-08-01T07:41:14;25.60;60.00
14415;DHT22;7307;50.852;4.314;2022-08-01T07:43:40;25.60;59.90
14415;DHT22;7307;50.852;4.314;2022-08-01T07:46:06;25.60;59.70
14415;DHT22;7307;50.852;4.314;2022-08-01T07:48:32;25.60;59.60
14415;DHT22;7307;50.852;4.314;2022-08-01T07:50:57;25.60;59.40
14415;DHT22;7307;50.852;4.314;2022-08-01T07:53:23;25.60;59.40
14415;DHT22;7307;50.852;4.314;2022-08-01T07:55:49;25.70;59.40
14415;DHT22;7307;50.852;4.314;2022-08-01T07:58:15;25.70;59.40
14415;DHT22;7307;50.852;4.314;2022-08-01T08:00:41;25.70;59.30
14415;DHT22;7307;50.852;4.314;2022-08-01T08:03:09;25.70;59.20
14415;DHT22;7307;50.852;4.314;2022-08-01T08:05:35;25.70;59.20
14415;DHT22;7307;50.852;4.314;2022-08-01T08:08:04;25.70;59.20
14415;DHT22;7307;50.852;4.314;2022-08-01T08:10:30;25.70;59.20
14415;DHT22;7307;50.852;4.314;2022-08-01T08:12:55;25.70;59.10
14415;DHT22;7307;50.852;4.314;2022-08-01T08:15:21;25.70;59.60
14415;DHT22;7307;50.852;4.314;2022-08-01T08:17:47;25.70;58.90
14415;DHT22;7307;50.852;4.314;2022-08-01T08:20:12;25.70;58.90
14415;DHT22;7307;50.852;4.314;2022-08-01T08:22:38;25.80;58.90
14415;DHT22;7307;50.852;4.314;2022-08-01T08:25:05;25.80;58.80
14415;DHT22;7307;50.852;4.314;2022-08-01T08:27:31;25.70;58.60
14415;DHT22;7307;50.852;4.314;2022-08-01T08:29:56;25.80;58.70
14415;DHT22;7307;50.852;4.314;2022-08-01T08:32:22;25.80;58.90
14415;DHT22;7307;50.852;4.314;2022-08-01T08:34:48;25.80;58.80
14415;DHT22;7307;50.852;4.314;2022-08-01T08:37:13;25.80;58.70
14415;DHT22;7307;50.852;4.314;2022-08-01T08:39:39;25.80;58.70
14415;DHT22;7307;50.852;4.314;2022-08-01T08:42:08;25.80;58.60
14415;DHT22;7307;50.852;4.314;2022-08-01T08:44:34;25.80;58.50
14415;DHT22;7307;50.852;4.314;2022-08-01T08:47:02;25.80;58.40
14415;DHT22;7307;50.852;4.314;2022-08-01T08:49:31;25.80;58.20
14415;DHT22;7307;50.852;4.314;2022-08-01T08:52:01;25.80;58.00
14415;DHT22;7307;50.852;4.314;2022-08-01T08:54:28;25.80;57.90
14415;DHT22;7307;50.852;4.314;2022-08-01T08:56:55;25.80;57.90
14415;DHT22;7307;50.852;4.314;2022-08-01T08:59:22;25.80;57.80
14415;DHT22;7307;50.852;4.314;2022-08-01T09:01:50;25.90;57.80
14415;DHT22;7307;50.852;4.314;2022-08-01T09:04:16;25.90;57.80
14415;DHT22;7307;50.852;4.314;2022-08-01T09:06:42;25.80;57.60
14415;DHT22;7307;50.852;4.314;2022-08-01T09:09:08;25.80;57.50
14415;DHT22;7307;50.852;4.314;2022-08-01T09:11:36;25.90;57.30
14415;DHT22;7307;50.852;4.314;2022-08-01T09:16:32;25.80;57.20
14415;DHT22;7307;50.852;4.314;2022-08-01T09:19:10;25.80;57.20
14415;DHT22;7307;50.852;4.314;2022-08-01T09:21:36;25.90;57.50
14415;DHT22;7307;50.852;4.314;2022-08-01T09:24:02;25.90;57.50
14415;DHT22;7307;50.852;4.314;2022-08-01T09:26:32;25.90;57.50
14415;DHT22;7307;50.852;4.314;2022-08-01T09:28:58;25.90;57.60
14415;DHT22;7307;50.852;4.314;2022-08-01T09:31:27;25.90;57.70
14415;DHT22;7307;50.852;4.314;2022-08-01T09:33:58;25.90;57.60
14415;DHT22;7307;50.852;4.314;2022-08-01T09:36:27;25.90;57.50
14415;DHT22;7307;50.852;4.314;2022-08-01T09:39:12;26.00;57.60
14415;DHT22;7307;50.852;4.314;2022-08-01T09:41:39;25.90;57.40
14415;DHT22;7307;50.852;4.314;2022-08-01T09:44:05;26.00;57.30
14415;DHT22;7307;50.852;4.314;2022-08-01T09:46:31;26.00;57.90
14415;DHT22;7307;50.852;4.314;2022-08-01T09:49:04;26.00;57.20
14415;DHT22;7307;50.852;4.314;2022-08-01T09:51:37;26.00;57.00
14415;DHT22;7307;50.852;4.314;2022-08-01T09:54:05;26.00;56.80
14415;DHT22;7307;50.852;4.314;2022-08-01T09:56:41;26.00;56.80
14415;DHT22;7307;50.852;4.314;2022-08-01T09:59:08;26.00;56.60
14415;DHT22;7307;50.852;4.314;2022-08-01T10:04:10;26.00;56.20
14415;DHT22;7307;50.852;4.314;2022-08-01T10:06:39;26.00;56.10
14415;DHT22;7307;50.852;4.314;2022-08-01T10:09:08;26.00;56.00
14415;DHT22;7307;50.852;4.314;2022-08-01T10:11:46;26.00;56.00
14415;DHT22;7307;50.852;4.314;2022-08-01T10:14:12;26.00;56.00
14415;DHT22;7307;50.852;4.314;2022-08-01T10:16:40;26.10;56.30
14415;DHT22;7307;50.852;4.314;2022-08-01T10:19:07;26.10;55.40
14415;DHT22;7307;50.852;4.314;2022-08-01T10:21:36;26.10;55.00
14415;DHT22;7307;50.852;4.314;2022-08-01T10:24:02;26.10;55.00
14415;DHT22;7307;50.852;4.314;2022-08-01T10:26:32;26.10;55.10
14415;DHT22;7307;50.852;4.314;2022-08-01T10:28:59;26.10;55.10
14415;DHT22;7307;50.852;4.314;2022-08-01T10:31:25;26.10;55.50
14415;DHT22;7307;50.852;4.314;2022-08-01T10:33:53;26.10;54.80
14415;DHT22;7307;50.852;4.314;2022-08-01T10:36:20;26.10;54.90
14415;DHT22;7307;50.852;4.314;2022-08-01T10:38:46;26.10;54.90
14415;DHT22;7307;50.852;4.314;2022-08-01T10:41:13;26.10;54.90
14415;DHT22;7307;50.852;4.314;2022-08-01T10:43:42;26.10;54.90
14415;DHT22;7307;50.852;4.314;2022-08-01T10:46:08;26.10;54.90
14415;DHT22;7307;50.852;4.314;2022-08-01T10:48:51;26.10;54.90
14415;DHT22;7307;50.852;4.314;2022-08-01T10:51:21;26.10;54.90
14415;DHT22;7307;50.852;4.314;2022-08-01T10:53:50;26.10;54.90
14415;DHT22;7307;50.852;4.314;2022-08-01T10:56:15;26.10;54.80
14415;DHT22;7307;50.852;4.314;2022-08-01T10:58:43;26.10;54.70
14415;DHT22;7307;50.852;4.314;2022-08-01T11:01:23;26.20;54.70
14415;DHT22;7307;50.852;4.314;2022-08-01T11:06:25;26.20;54.50
14415;DHT22;7307;50.852;4.314;2022-08-01T11:08:53;26.20;54.50
14415;DHT22;7307;50.852;4.314;2022-08-01T11:11:20;26.20;54.40
14415;DHT22;7307;50.852;4.314;2022-08-01T11:16:28;26.20;54.30
14415;DHT22;7307;50.852;4.314;2022-08-01T11:18:54;26.20;54.20
14415;DHT22;7307;50.852;4.314;2022-08-01T11:21:20;26.20;54.10
14415;DHT22;7307;50.852;4.314;2022-08-01T11:23:50;26.20;54.20
14415;DHT22;7307;50.852;4.314;2022-08-01T11:26:19;26.20;54.20
14415;DHT22;7307;50.852;4.314;2022-08-01T11:29:10;26.20;54.10
14415;DHT22;7307;50.852;4.314;2022-08-01T11:31:33;26.20;54.00
14415;DHT22;7307;50.852;4.314;2022-08-01T11:34:00;26.20;54.40
14415;DHT22;7307;50.852;4.314;2022-08-01T11:36:26;26.30;54.00
14415;DHT22;7307;50.852;4.314;2022-08-01T11:39:12;26.30;54.10
14415;DHT22;7307;50.852;4.314;2022-08-01T11:41:39;26.30;53.90
14415;DHT22;7307;50.852;4.314;2022-08-01T11:44:07;26.30;53.80
14415;DHT22;7307;50.852;4.314;2022-08-01T11:52:04;26.30;53.10
14415;DHT22;7307;50.852;4.314;2022-08-01T11:54:35;26.30;53.00
14415;DHT22;7307;50.852;4.314;2022-08-01T11:57:04;26.30;52.90
14415;DHT22;7307;50.852;4.314;2022-08-01T11:59:42;26.30;52.90
14415;DHT22;7307;50.852;4.314;2022-08-01T12:02:20;26.30;53.00
14415;DHT22;7307;50.852;4.314;2022-08-01T12:07:16;26.30;52.90
14415;DHT22;7307;50.852;4.314;2022-08-01T12:09:42;26.30;52.80
14415;DHT22;7307;50.852;4.314;2022-08-01T12:12:09;26.30;52.80
14415;DHT22;7307;50.852;4.314;2022-08-01T12:14:34;26.40;52.90
14415;DHT22;7307;50.852;4.314;2022-08-01T12:17:00;26.40;52.80
14415;DHT22;7307;50.852;4.314;2022-08-01T12:19:26;26.40;52.80
14415;DHT22;7307;50.852;4.314;2022-08-01T12:22:13;26.40;52.80
14415;DHT22;7307;50.852;4.314;2022-08-01T12:24:41;26.40;52.70
14415;DHT22;7307;50.852;4.314;2022-08-01T12:27:08;26.40;52.70
14415;DHT22;7307;50.852;4.314;2022-08-01T12:29:37;26.40;52.70
14415;DHT22;7307;50.852;4.314;2022-08-01T12:32:03;26.40;52.60
14415;DHT22;7307;50.852;4.314;2022-08-01T12:34:30;26.40;52.50
14415;DHT22;7307;50.852;4.314;2022-08-01T12:37:00;26.40;52.40
14415;DHT22;7307;50.852;4.314;2022-08-01T12:39:32;26.40;52.30
14415;DHT22;7307;50.852;4.314;2022-08-01T12:42:01;26.50;52.30
14415;DHT22;7307;50.852;4.314;2022-08-01T12:44:31;26.50;52.20
14415;DHT22;7307;50.852;4.314;2022-08-01T12:46:56;26.50;52.10
14415;DHT22;7307;50.852;4.314;2022-08-01T12:49:23;26.50;51.90
14415;DHT22;7307;50.852;4.314;2022-08-01T12:51:49;26.50;51.70
14415;DHT22;7307;50.852;4.314;2022-08-01T12:54:16;26.50;51.60
14415;DHT22;7307;50.852;4.314;2022-08-01T12:56:42;26.50;51.60
14415;DHT22;7307;50.852;4.314;2022-08-01T12:59:22;26.50;51.70
14415;DHT22;7307;50.852;4.314;2022-08-01T13:01:53;26.50;51.80
14415;DHT22;7307;50.852;4.314;2022-08-01T13:04:20;26.50;51.80
14415;DHT22;7307;50.852;4.314;2022-08-01T13:06:46;26.50;51.90
14415;DHT22;7307;50.852;4.314;2022-08-01T13:09:12;26.50;51.90
14415;DHT22;7307;50.852;4.314;2022-08-01T13:11:40;26.50;51.90
14415;DHT22;7307;50.852;4.314;2022-08-01T13:14:06;26.50;51.80
14415;DHT22;7307;50.852;4.314;2022-08-01T13:16:32;26.50;51.60
14415;DHT22;7307;50.852;4.314;2022-08-01T13:18:58;26.50;51.60
14415;DHT22;7307;50.852;4.314;2022-08-01T13:21:34;26.50;51.70
14415;DHT22;7307;50.852;4.314;2022-08-01T13:24:08;26.50;51.70
14415;DHT22;7307;50.852;4.314;2022-08-01T13:26:52;26.50;51.60
14415;DHT22;7307;50.852;4.314;2022-08-01T13:29:40;26.50;51.50
14415;DHT22;7307;50.852;4.314;2022-08-01T13:32:20;26.50;51.40
14415;DHT22;7307;50.852;4.314;2022-08-01T13:34:46;26.50;50.90
14415;DHT22;7307;50.852;4.314;2022-08-01T13:37:21;26.50;50.80
14415;DHT22;7307;50.852;4.314;2022-08-01T13:39:47;26.50;50.60
14415;DHT22;7307;50.852;4.314;2022-08-01T13:42:15;26.50;50.60
14415;DHT22;7307;50.852;4.314;2022-08-01T13:44:42;26.50;50.60
14415;DHT22;7307;50.852;4.314;2022-08-01T13:47:09;26.50;50.50
14415;DHT22;7307;50.852;4.314;2022-08-01T13:49:34;26.50;50.30
14415;DHT22;7307;50.852;4.314;2022-08-01T13:52:01;26.50;50.10
14415;DHT22;7307;50.852;4.314;2022-08-01T13:54:27;26.50;50.60
14415;DHT22;7307;50.852;4.314;2022-08-01T13:56:53;26.50;50.00
14415;DHT22;7307;50.852;4.314;2022-08-01T13:59:19;26.50;50.10
14415;DHT22;7307;50.852;4.314;2022-08-01T14:01:45;26.50;50.00
14415;DHT22;7307;50.852;4.314;2022-08-01T14:04:11;26.50;50.00
14415;DHT22;7307;50.852;4.314;2022-08-01T14:06:37;26.60;50.00
14415;DHT22;7307;50.852;4.314;2022-08-01T14:09:04;26.50;49.80
14415;DHT22;7307;50.852;4.314;2022-08-01T14:11:30;26.50;49.70
14415;DHT22;7307;50.852;4.314;2022-08-01T14:13:55;26.50;49.60
14415;DHT22;7307;50.852;4.314;2022-08-01T14:16:21;26.60;49.70
14415;DHT22;7307;50.852;4.314;2022-08-01T14:18:46;26.60;49.70
14415;DHT22;7307;50.852;4.314;2022-08-01T14:21:12;26.60;49.60
14415;DHT22;7307;50.852;4.314;2022-08-01T14:23:38;26.60;49.50
14415;DHT22;7307;50.852;4.314;2022-08-01T14:26:04;26.60;49.50
14415;DHT22;7307;50.852;4.314;2022-08-01T14:28:30;26.60;49.50
14415;DHT22;7307;50.852;4.314;2022-08-01T14:30:57;26.60;49.40
14415;DHT22;7307;50.852;4.314;2022-08-01T14:33:22;26.60;49.40
14415;DHT22;7307;50.852;4.314;2022-08-01T14:35:48;26.60;49.40
14415;DHT22;7307;50.852;4.314;2022-08-01T14:38:14;26.60;49.80
14415;DHT22;7307;50.852;4.314;2022-08-01T14:40:40;26.60;50.20
14415;DHT22;7307;50.852;4.314;2022-08-01T14:43:08;26.60;49.80
14415;DHT22;7307;50.852;4.314;2022-08-01T14:45:34;26.60;49.60
14415;DHT22;7307;50.852;4.314;2022-08-01T14:48:00;26.60;49.50
14415;DHT22;7307;50.852;4.314;2022-08-01T14:50:26;26.60;49.30
14415;DHT22;7307;50.852;4.314;2022-08-01T14:52:53;26.60;49.00
14415;DHT22;7307;50.852;4.314;2022-08-01T14:55:19;26.60;48.70
14415;DHT22;7307;50.852;4.314;2022-08-01T14:57:48;26.60;48.50
14415;DHT22;7307;50.852;4.314;2022-08-01T15:00:14;26.60;48.30
14415;DHT22;7307;50.852;4.314;2022-08-01T15:02:41;26.60;48.10
14415;DHT22;7307;50.852;4.314;2022-08-01T15:05:07;26.70;48.00
14415;DHT22;7307;50.852;4.314;2022-08-01T15:07:33;26.60;48.00
14415;DHT22;7307;50.852;4.314;2022-08-01T15:09:59;26.70;48.00
14415;DHT22;7307;50.852;4.314;2022-08-01T15:12:27;26.70;48.00
14415;DHT22;7307;50.852;4.314;2022-08-01T15:14:53;26.70;48.00
14415;DHT22;7307;50.852;4.314;2022-08-01T15:17:22;26.70;48.60
14415;DHT22;7307;50.852;4.314;2022-08-01T15:19:51;26.70;48.00
14415;DHT22;7307;50.852;4.314;2022-08-01T15:22:18;26.70;47.90
14415;DHT22;7307;50.852;4.314;2022-08-01T15:24:44;26.70;47.90
14415;DHT22;7307;50.852;4.314;2022-08-01T15:27:10;26.70;47.80
14415;DHT22;7307;50.852;4.314;2022-08-01T15:29:36;26.70;47.60
14415;DHT22;7307;50.852;4.314;2022-08-01T15:32:03;26.70;47.60
14415;DHT22;7307;50.852;4.314;2022-08-01T15:34:30;26.70;47.50
14415;DHT22;7307;50.852;4.314;2022-08-01T15:36:56;26.70;47.40
14415;DHT22;7307;50.852;4.314;2022-08-01T15:39:22;26.70;47.30
14415;DHT22;7307;50.852;4.314;2022-08-01T15:41:48;26.70;47.20
14415;DHT22;7307;50.852;4.314;2022-08-01T15:44:14;26.70;47.80
14415;DHT22;7307;50.852;4.314;2022-08-01T15:46:40;26.70;47.20
14415;DHT22;7307;50.852;4.314;2022-08-01T15:49:06;26.70;47.80
14415;DHT22;7307;50.852;4.314;2022-08-01T15:51:32;26.70;47.10
14415;DHT22;7307;50.852;4.314;2022-08-01T15:53:58;26.80;47.20
14415;DHT22;7307;50.852;4.314;2022-08-01T15:56:30;26.70;47.10
14415;DHT22;7307;50.852;4.314;2022-08-01T15:58:56;26.70;47.00
14415;DHT22;7307;50.852;4.314;2022-08-01T16:01:22;26.70;46.90
14415;DHT22;7307;50.852;4.314;2022-08-01T16:03:47;26.80;46.70
14415;DHT22;7307;50.852;4.314;2022-08-01T16:06:13;26.70;46.70
14415;DHT22;7307;50.852;4.314;2022-08-01T16:08:39;26.80;46.70
14415;DHT22;7307;50.852;4.314;2022-08-01T16:11:04;26.80;46.40
14415;DHT22;7307;50.852;4.314;2022-08-01T16:13:30;26.80;46.20
14415;DHT22;7307;50.852;4.314;2022-08-01T16:15:56;26.80;46.30
14415;DHT22;7307;50.852;4.314;2022-08-01T16:18:23;26.80;46.10